Time;durP1;ratioP1;P1;durP2;ratioP2;P2;SDS_P1;SDS_P2;PMS_P1;PMS_P2;Temp;Humidity;BMP_temperature;BMP_pressure;BME280_temperature;BME280_humidity;BME280_pressure;Samples;Min_cycle;Max_cycle;Signal;HPM_P1;HPM_P2
2021/12/24 00:01:16;;;;;;;9.65;6.47;;;;;;;10.09;83.43;100891.78;5019430;28;20044;-78
2021/12/24 00:03:43;;;;;;;5.43;4.20;;;;;;;10.23;81.50;100888.69;5018445;28;20041;-78
2021/12/24 00:06:10;;;;;;;5.00;4.47;;;;;;;10.39;80.23;100903.59;5019686;28;20032;-77
2021/12/24 00:08:36;;;;;;;7.22;5.95;;;;;;;10.42;80.07;100900.13;5021237;28;20052;-77
2021/12/24 00:11:05;;;;;;;6.18;5.05;;;;;;;10.45;80.28;100902.22;5019562;28;20066;-78
2021/12/24 00:13:37;;;;;;;6.80;5.15;;;;;;;10.37;80.10;100894.78;5020329;28;20044;-78
2021/12/24 00:16:10;;;;;;;7.65;6.85;;;;;;;10.39;80.34;100898.03;5037577;28;20076;-78
2021/12/24 00:37:26;;;;;;;5.53;3.08;;;;;;;10.72;76.53;100894.38;5040268;28;20041;-77
2021/12/24 00:40:09;;;;;;;3.80;2.20;;;;;;;10.76;75.61;100884.19;5021416;28;20453;-77
2021/12/24 00:42:35;;;;;;;2.65;1.70;;;;;;;10.86;73.99;100888.44;5017804;28;20041;-77
2021/12/24 00:45:05;;;;;;;1.60;1.50;;;;;;;10.82;74.12;100887.53;5018181;28;20030;-77
2021/12/24 00:47:30;;;;;;;9.63;2.00;;;;;;;10.84;73.98;100891.59;5016648;28;20040;-77
2021/12/24 00:49:58;;;;;;;1.98;1.33;;;;;;;10.89;73.51;100893.34;5018865;28;20030;-78
2021/12/24 00:55:06;;;;;;;2.40;1.60;;;;;;;10.80;74.69;100884.28;5036515;28;20088;-77
2021/12/24 00:57:33;;;;;;;3.15;1.88;;;;;;;10.90;72.45;100898.56;5018212;28;20057;-78
2021/12/24 01:00:03;;;;;;;1.60;1.50;;;;;;;10.88;73.28;100888.94;5037321;28;20113;-78
2021/12/24 01:02:31;;;;;;;2.63;1.73;;;;;;;10.84;73.56;100886.03;5019767;28;20033;-77
2021/12/24 01:04:57;;;;;;;2.42;1.88;;;;;;;10.79;73.08;100877.91;5022569;28;20045;-77
2021/12/24 01:07:26;;;;;;;2.35;1.60;;;;;;;10.76;74.53;100881.41;5021683;28;20037;-75
2021/12/24 01:09:51;;;;;;;1.63;1.50;;;;;;;10.75;74.30;100890.88;5021903;28;20026;-77
2021/12/24 01:12:40;;;;;;;2.42;1.48;;;;;;;10.64;75.16;100881.38;5021847;28;20041;-77
2021/12/24 01:15:06;;;;;;;2.17;1.75;;;;;;;10.65;75.00;100888.56;5021959;28;20087;-78
2021/12/24 01:25:58;;;;;;;2.33;2.15;;;;;;;10.48;76.95;100879.25;5039954;28;20116;-78
2021/12/24 01:40:08;;;;;;;;;;;;;;;10.34;77.90;100872.41;5041374;28;20037;-78
2021/12/24 01:42:47;;;;;;;1.85;1.75;;;;;;;10.36;78.54;100876.47;5023234;28;19913;-78
2021/12/24 01:45:20;;;;;;;2.33;2.22;;;;;;;10.40;78.30;100882.16;5041613;28;20040;-78
2021/12/24 01:47:46;;;;;;;2.40;2.20;;;;;;;10.34;78.39;100869.63;5023845;28;20068;-78
2021/12/24 01:50:21;;;;;;;2.45;2.20;;;;;;;10.34;78.65;100878.78;5024010;28;20440;-77
2021/12/24 01:52:49;;;;;;;2.63;2.42;;;;;;;10.31;78.63;100878.66;5023803;28;20064;-78
2021/12/24 01:55:35;;;;;;;4.05;2.42;;;;;;;10.27;78.97;100881.28;5025876;28;20029;-78
2021/12/24 01:58:03;;;;;;;4.25;2.50;;;;;;;10.33;78.66;100882.69;5009263;28;20060;-78
2021/12/24 02:00:33;;;;;;;2.17;1.88;;;;;;;10.33;78.03;100854.06;5005641;28;20030;-77
2021/12/24 02:03:00;;;;;;;3.63;1.88;;;;;;;10.46;77.90;100873.25;5021507;28;20034;-78
2021/12/24 02:05:32;;;;;;;2.33;1.77;;;;;;;10.41;78.71;100862.31;5006566;28;20068;-78
2021/12/24 02:08:00;;;;;;;1.55;1.45;;;;;;;10.39;78.07;100861.06;5005936;28;20540;-78
2021/12/24 02:10:26;;;;;;;1.52;1.23;;;;;;;10.29;78.66;100853.97;5001336;28;20033;-78
2021/12/24 02:12:54;;;;;;;2.20;1.50;;;;;;;10.35;79.28;100858.16;4999582;28;20026;-78
2021/12/24 02:15:46;;;;;;;3.25;1.67;;;;;;;10.23;78.88;100833.06;5002654;28;20030;-78
2021/12/24 02:29:07;;;;;;;2.35;2.15;;;;;;;10.04;79.88;100841.94;5019112;28;20568;-78
2021/12/24 02:31:35;;;;;;;1.70;1.60;;;;;;;10.03;80.34;100850.63;5001954;28;20114;-78
2021/12/24 02:34:01;;;;;;;1.80;1.50;;;;;;;9.97;80.94;100842.50;5002178;28;20036;-78
2021/12/24 02:36:28;;;;;;;2.28;1.70;;;;;;;10.07;81.05;100837.66;5003167;28;20084;-78
2021/12/24 02:38:55;;;;;;;17.30;13.85;;;;;;;9.87;80.03;100840.16;5001666;28;20033;-78
2021/12/24 02:41:20;;;;;;;27.50;22.00;;;;;;;9.81;81.01;100837.94;5002059;28;20029;-78
2021/12/24 02:43:49;;;;;;;28.25;21.02;;;;;;;9.65;81.80;100834.97;5002150;28;20370;-78
2021/12/24 02:49:16;;;;;;;22.10;19.65;;;;;;;9.41;83.38;100833.69;4983823;28;20047;-78
2021/12/24 02:54:26;;;;;;;26.08;19.40;;;;;;;9.29;84.39;100828.06;5029915;28;20040;-78
2021/12/24 02:56:54;;;;;;;21.95;18.58;;;;;;;9.21;84.84;100826.16;5018374;28;20053;-79
2021/12/24 02:59:28;;;;;;;26.35;17.85;;;;;;;9.16;84.97;100813.31;5032154;28;20388;-78
2021/12/24 03:01:56;;;;;;;22.42;17.60;;;;;;;9.16;84.61;100818.03;5032057;28;20029;-79
2021/12/24 03:04:21;;;;;;;23.77;17.80;;;;;;;9.09;85.26;100807.47;5032861;28;20033;-78
2021/12/24 03:06:50;;;;;;;19.42;16.58;;;;;;;9.14;84.89;100821.16;5032178;28;20033;-79
2021/12/24 03:09:18;;;;;;;20.70;17.00;;;;;;;9.12;85.29;100823.47;5033309;28;20030;-78
2021/12/24 03:11:45;;;;;;;19.10;15.55;;;;;;;9.13;85.78;100825.09;5033055;28;20033;-79
2021/12/24 03:14:11;;;;;;;16.85;14.50;;;;;;;9.13;85.86;100819.53;5031913;28;20037;-79
2021/12/24 03:16:38;;;;;;;19.73;15.48;;;;;;;9.21;85.48;100826.16;5032369;28;20033;-78
2021/12/24 03:19:07;;;;;;;20.45;15.23;;;;;;;9.15;85.73;100810.84;5030871;28;20025;-78
2021/12/24 03:21:50;;;;;;;18.60;13.30;;;;;;;9.15;85.25;100816.41;5028221;28;20034;-78
2021/12/24 03:24:34;;;;;;;17.47;14.23;;;;;;;9.16;85.23;100818.03;5026934;28;20032;-78
2021/12/24 03:26:59;;;;;;;17.63;14.57;;;;;;;9.18;85.43;100821.31;5028333;28;20033;-78
2021/12/24 03:29:30;;;;;;;19.48;14.80;;;;;;;9.23;85.78;100823.88;5028046;28;20116;-78
2021/12/24 03:31:56;;;;;;;18.05;14.75;;;;;;;9.22;84.96;100813.13;5024145;28;20059;-78
2021/12/24 03:34:22;;;;;;;16.65;14.77;;;;;;;9.25;85.29;100816.00;5023844;28;20029;-78
2021/12/24 03:36:51;;;;;;;14.60;12.20;;;;;;;9.28;85.12;100809.78;5024195;28;20480;-78
2021/12/24 03:39:19;;;;;;;9.65;8.57;;;;;;;9.31;84.67;100808.28;5030044;28;20033;-78
2021/12/24 03:41:46;;;;;;;8.98;7.55;;;;;;;9.45;84.09;100806.88;5045779;28;20034;-78
2021/12/24 03:44:16;;;;;;;7.75;6.28;;;;;;;9.53;83.82;100804.34;5024513;28;20034;-78
2021/12/24 03:49:34;;;;;;;11.18;8.52;;;;;;;9.62;82.95;100793.97;5041142;28;20037;-77
2021/12/24 03:52:18;;;;;;;12.35;9.35;;;;;;;9.60;82.89;100796.28;5039929;28;20056;-78
2021/12/24 03:54:58;;;;;;;17.33;12.30;;;;;;;9.79;82.52;100802.13;5040690;28;20030;-78
2021/12/24 03:57:29;;;;;;;13.93;11.27;;;;;;;9.68;82.53;100806.50;5012660;28;20054;-78
2021/12/24 04:00:00;;;;;;;13.73;11.80;;;;;;;9.78;82.45;100806.06;5003543;28;20030;-78
2021/12/24 04:02:26;;;;;;;15.48;12.38;;;;;;;9.74;82.21;100807.91;5003869;28;20465;-77
2021/12/24 04:04:51;;;;;;;13.00;11.60;;;;;;;9.61;82.22;100809.03;5003866;28;20193;-78
2021/12/24 04:07:18;;;;;;;12.00;10.70;;;;;;;9.75;81.76;100805.94;5003724;28;20042;-77
2021/12/24 04:09:54;;;;;;;13.25;10.23;;;;;;;9.60;82.31;100796.28;5004169;28;20026;-78
2021/12/24 04:12:22;;;;;;;11.98;9.80;;;;;;;9.60;82.95;100799.06;5004263;28;20084;-78
2021/12/24 04:14:48;;;;;;;12.00;9.10;;;;;;;9.53;83.12;100794.03;5003971;28;20029;-78
2021/12/24 04:17:14;;;;;;;25.23;19.90;;;;;;;9.55;83.03;100799.28;5021709;28;20033;-78
2021/12/24 04:25:08;;;;;;;19.40;13.70;;;;;;;9.58;83.54;100801.34;5022265;28;20092;-78
2021/12/24 04:27:34;;;;;;;18.60;14.52;;;;;;;9.59;83.70;100797.44;5004345;28;20029;-76
2021/12/24 04:30:09;;;;;;;9.35;8.00;;;;;;;9.66;82.52;100801.28;5003737;28;20113;-78
2021/12/24 04:33:02;;;;;;;8.68;7.80;;;;;;;9.74;82.99;100807.09;5004453;28;20039;-78
2021/12/24 04:51:57;;;;;;;5.47;4.97;;;;;;;9.78;85.16;100828.28;5024995;28;20126;-76
2021/12/24 05:05:51;;;;;;;12.82;9.10;;;;;;;9.63;91.61;100821.41;5022763;28;20117;-76
2021/12/24 05:08:25;;;;;;;9.80;8.80;;;;;;;9.50;91.90;100824.47;5005279;28;20041;-76
2021/12/24 05:11:00;;;;;;;10.32;9.05;;;;;;;9.44;92.20;100832.22;5004905;28;20022;-76
2021/12/24 05:13:25;;;;;;;12.73;10.82;;;;;;;9.48;92.36;100826.78;5005002;28;20037;-75
2021/12/24 05:16:01;;;;;;;10.40;9.15;;;;;;;9.46;92.51;100827.13;5004482;28;20025;-76
2021/12/24 05:21:37;;;;;;;13.75;11.18;;;;;;;9.31;93.99;100830.50;5023410;28;20037;-75
2021/12/24 05:24:09;;;;;;;12.60;11.30;;;;;;;9.32;93.53;100832.13;5005341;28;20026;-76
2021/12/24 05:26:37;;;;;;;12.20;10.90;;;;;;;9.21;94.17;100837.28;5004671;28;20026;-76
2021/12/24 05:29:05;;;;;;;12.90;11.57;;;;;;;9.15;94.65;100835.84;5004543;28;20088;-75
2021/12/24 05:31:31;;;;;;;15.25;11.18;;;;;;;9.33;95.38;100834.59;5004254;28;20049;-76
2021/12/24 05:34:00;;;;;;;14.15;12.27;;;;;;;9.09;95.35;100828.88;5003871;28;20049;-75
2021/12/24 05:36:26;;;;;;;13.07;10.93;;;;;;;9.20;96.14;100835.66;5021688;28;20026;-75
2021/12/24 05:38:52;;;;;;;15.02;12.13;;;;;;;9.19;95.46;100834.84;5005003;28;20040;-75
2021/12/24 05:41:23;;;;;;;14.27;12.32;;;;;;;9.19;95.61;100840.38;5003925;28;20093;-76
2021/12/24 05:43:52;;;;;;;15.18;12.93;;;;;;;9.10;95.81;100831.31;5004731;28;20030;-75
2021/12/24 05:46:21;;;;;;;15.07;13.27;;;;;;;9.16;96.15;100843.03;5004090;28;20037;-75
2021/12/24 05:48:49;;;;;;;16.63;12.90;;;;;;;8.92;96.74;100819.50;5005328;28;20037;-76
2021/12/24 05:51:23;;;;;;;13.80;12.27;;;;;;;9.13;97.63;100849.25;5006484;28;20057;-76
2021/12/24 05:53:49;;;;;;;14.75;12.30;;;;;;;9.07;97.09;100847.84;5006492;28;20192;-75
2021/12/24 05:56:15;;;;;;;15.38;11.82;;;;;;;9.00;97.83;100855.88;5006965;28;20477;-76
2021/12/24 05:58:40;;;;;;;13.73;12.32;;;;;;;9.11;97.75;100848.81;5006987;28;20058;-77
2021/12/24 06:01:06;;;;;;;19.55;14.23;;;;;;;9.13;98.18;100852.03;5005017;28;20416;-76
2021/12/24 06:03:37;;;;;;;15.02;13.43;;;;;;;9.15;97.17;100850.53;5003700;28;20084;-75
2021/12/24 06:06:06;;;;;;;16.77;14.25;;;;;;;9.06;96.75;100855.34;5002371;28;20046;-76
2021/12/24 06:08:32;;;;;;;26.58;18.20;;;;;;;9.10;97.73;100852.69;5003985;28;20484;-76
2021/12/24 06:10:57;;;;;;;17.27;13.98;;;;;;;9.11;97.30;100848.81;5002788;28;20041;-76
2021/12/24 06:13:28;;;;;;;19.33;13.88;;;;;;;9.07;97.45;100862.53;5002934;28;20028;-75
2021/12/24 06:15:53;;;;;;;15.02;13.45;;;;;;;9.04;97.93;100854.06;5001715;28;20030;-76
2021/12/24 06:18:27;;;;;;;15.02;13.43;;;;;;;9.05;98.04;100869.56;5002119;28;20083;-76
2021/12/24 06:21:00;;;;;;;15.30;13.73;;;;;;;9.08;98.71;100855.00;5002720;28;20049;-77
2021/12/24 06:23:38;;;;;;;18.33;14.10;;;;;;;9.13;98.80;100847.28;5002920;28;20030;-76
2021/12/24 06:26:14;;;;;;;12.85;11.55;;;;;;;9.09;98.37;100851.06;5002065;28;20037;-77
2021/12/24 06:28:48;;;;;;;10.65;9.55;;;;;;;9.17;98.19;100839.13;5001379;28;20483;-76
2021/12/24 06:31:15;;;;;;;10.15;8.30;;;;;;;9.17;97.73;100841.91;5001427;28;20111;-76
2021/12/24 06:33:43;;;;;;;14.32;11.00;;;;;;;9.19;97.74;100834.03;5018439;28;20100;-76
2021/12/24 06:36:20;;;;;;;14.10;12.27;;;;;;;9.10;97.87;100834.06;5001466;28;20037;-76
2021/12/24 06:38:57;;;;;;;15.88;11.35;;;;;;;9.00;98.67;100820.63;5000594;28;20029;-76
2021/12/24 06:41:38;;;;;;;12.98;11.15;;;;;;;8.95;98.62;100811.66;5002299;28;20499;-76
2021/12/24 06:44:12;;;;;;;14.80;11.75;;;;;;;8.95;99.35;100818.03;5020241;28;20492;-77
2021/12/24 06:46:42;;;;;;;13.90;11.55;;;;;;;8.93;99.66;100817.53;5020285;28;20480;-76
2021/12/24 06:49:10;;;;;;;12.55;11.20;;;;;;;8.90;99.73;100827.38;5001612;28;20365;-77
2021/12/24 06:51:36;;;;;;;16.10;12.57;;;;;;;9.10;99.08;100839.63;5000713;28;20124;-77
2021/12/24 06:54:06;;;;;;;15.23;12.55;;;;;;;9.02;98.90;100848.84;5002914;28;20041;-77
2021/12/24 06:56:35;;;;;;;13.77;10.88;;;;;;;9.16;98.57;100851.34;5000993;28;20054;-76
2021/12/24 06:59:48;;;;;;;14.15;11.05;;;;;;;9.11;98.34;100879.34;5001659;28;20033;-76
2021/12/24 07:02:16;;;;;;;11.05;9.80;;;;;;;9.01;97.69;100876.94;5001076;28;20034;-77
2021/12/24 07:04:44;;;;;;;11.05;9.85;;;;;;;8.92;98.46;100869.47;5001315;28;20026;-76
2021/12/24 07:07:10;;;;;;;12.15;10.75;;;;;;;8.92;98.92;100868.66;4999355;28;20034;-77
2021/12/24 07:09:42;;;;;;;14.00;11.60;;;;;;;8.82;99.06;100847.66;5000608;28;20030;-77
2021/12/24 07:12:18;;;;;;;11.77;10.50;;;;;;;8.94;99.50;100866.34;5001772;28;20037;-76
2021/12/24 07:14:49;;;;;;;16.67;11.48;;;;;;;9.00;99.92;100869.75;5001425;28;20025;-76
2021/12/24 07:17:24;;;;;;;13.27;11.10;;;;;;;9.09;100.00;100873.28;4997049;28;20400;-77
2021/12/24 07:19:52;;;;;;;10.93;9.68;;;;;;;9.13;100.00;100874.25;4999083;28;20037;-76
2021/12/24 07:22:18;;;;;;;12.63;10.95;;;;;;;9.13;100.00;100868.69;5001039;28;20165;-76
2021/12/24 07:24:47;;;;;;;13.30;11.32;;;;;;;9.21;100.00;100881.69;5001069;28;20061;-76
2021/12/24 07:27:19;;;;;;;12.10;10.88;;;;;;;9.21;100.00;100878.91;5019193;28;20041;-76
2021/12/24 07:29:50;;;;;;;14.75;12.15;;;;;;;9.23;99.93;100873.84;5019725;28;20101;-78
2021/12/24 07:32:21;;;;;;;18.92;14.90;;;;;;;9.27;100.00;100868.44;5000710;28;20088;-77
2021/12/24 07:34:52;;;;;;;14.02;12.38;;;;;;;9.27;99.29;100862.88;4999538;28;20055;-76
2021/12/24 07:37:27;;;;;;;21.08;15.70;;;;;;;9.30;98.85;100854.69;5001979;28;20388;-78
2021/12/24 07:39:58;;;;;;;24.60;18.50;;;;;;;9.44;98.68;100855.25;5002390;28;20034;-77
2021/12/24 07:42:26;;;;;;;25.83;19.58;;;;;;;9.54;98.16;100853.22;5001324;28;20107;-77
2021/12/24 07:44:55;;;;;;;22.90;18.55;;;;;;;9.71;98.91;100859.44;5012079;28;20022;-81
2021/12/24 07:47:28;;;;;;;32.53;23.88;;;;;;;9.64;98.39;100825.00;5021411;28;20109;-82
2021/12/24 07:50:16;;;;;;;33.70;23.75;;;;;;;9.86;97.53;100858.00;5021034;28;20022;-82
2021/12/24 07:52:42;;;;;;;26.80;19.85;;;;;;;10.01;97.13;100856.50;5021163;28;20041;-82
2021/12/24 07:55:11;;;;;;;23.92;18.65;;;;;;;9.94;95.73;100848.72;5021656;28;20053;-82
2021/12/24 07:57:40;;;;;;;20.05;16.92;;;;;;;9.88;94.99;100858.44;5021251;28;20056;-79
2021/12/24 08:00:11;;;;;;;13.45;12.00;;;;;;;9.85;94.56;100852.75;5038451;28;20037;-81
2021/12/24 08:02:41;;;;;;;15.93;12.98;;;;;;;9.77;93.66;100857.25;5021677;28;20475;-83
2021/12/24 08:05:10;;;;;;;12.55;11.25;;;;;;;9.75;94.33;100855.94;5021477;28;20021;-79
2021/12/24 08:07:40;;;;;;;16.88;12.45;;;;;;;9.74;94.71;100859.88;5021781;28;20017;-80
2021/12/24 08:10:06;;;;;;;13.68;11.13;;;;;;;9.76;95.49;100858.41;5021580;28;20037;-82
2021/12/24 08:12:32;;;;;;;17.42;14.50;;;;;;;9.76;95.20;100850.06;5021360;28;20022;-82
2021/12/24 08:15:00;;;;;;;20.30;13.38;;;;;;;9.85;94.54;100856.34;5013089;28;20034;-76
2021/12/24 08:20:55;;;;;;;15.05;12.23;;;;;;;9.83;94.45;100858.66;4954941;28;20035;-77
2021/12/24 08:23:21;;;;;;;16.00;12.57;;;;;;;9.81;94.71;100855.41;4940828;29;20031;-77
2021/12/24 08:25:50;;;;;;;13.15;11.73;;;;;;;9.78;94.22;100861.66;4986432;28;20044;-77
2021/12/24 08:28:42;;;;;;;15.65;13.95;;;;;;;9.80;94.45;100848.25;5017706;28;20030;-77
2021/12/24 08:31:16;;;;;;;13.93;12.38;;;;;;;9.85;94.19;100850.78;5000335;28;20034;-77
2021/12/24 08:34:13;;;;;;;17.20;13.70;;;;;;;9.88;94.41;100858.44;5020592;28;20026;-77
2021/12/24 08:36:41;;;;;;;14.07;12.57;;;;;;;9.88;93.80;100864.00;5002985;28;20038;-78
2021/12/24 08:39:10;;;;;;;20.10;16.20;;;;;;;9.91;94.29;100856.97;5004244;28;20034;-75
2021/12/24 08:41:44;;;;;;;16.52;14.52;;;;;;;10.03;93.20;100856.19;5000546;28;20034;-75
2021/12/24 08:44:33;;;;;;;13.52;11.63;;;;;;;10.03;93.17;100856.19;5000364;28;20034;-77
2021/12/24 08:47:04;;;;;;;12.20;11.00;;;;;;;9.87;92.73;100842.94;5000727;28;20052;-75
2021/12/24 08:49:38;;;;;;;13.32;11.00;;;;;;;9.87;92.95;100842.13;4999891;28;20037;-75
2021/12/24 08:52:04;;;;;;;13.48;11.50;;;;;;;9.91;93.44;100852.22;4999611;28;20448;-75
2021/12/24 08:54:36;;;;;;;13.48;12.05;;;;;;;9.89;93.18;100860.06;4999286;28;20038;-75
2021/12/24 08:57:07;;;;;;;13.57;11.88;;;;;;;9.93;93.60;100860.19;5004324;28;20187;-75
2021/12/24 08:59:37;;;;;;;13.77;11.88;;;;;;;9.92;92.69;100853.03;5016508;28;20060;-75
2021/12/24 09:02:03;;;;;;;15.63;11.70;;;;;;;9.98;92.93;100848.88;5019363;28;20025;-74
2021/12/24 09:04:38;;;;;;;14.80;11.73;;;;;;;10.03;93.07;100858.97;5037939;28;20033;-74
2021/12/24 09:07:04;;;;;;;12.27;10.48;;;;;;;10.08;92.61;100851.22;5037121;28;20108;-75
2021/12/24 09:09:32;;;;;;;13.98;11.52;;;;;;;10.04;92.77;100846.69;5019644;28;20057;-75
2021/12/24 09:12:00;;;;;;;13.63;12.23;;;;;;;10.06;93.13;100844.38;5038030;28;20439;-75
2021/12/24 09:14:36;;;;;;;16.88;12.90;;;;;;;10.07;92.67;100835.69;5020324;28;20030;-75
2021/12/24 09:17:07;;;;;;;15.27;11.88;;;;;;;10.09;92.13;100838.94;5019767;28;20053;-75
2021/12/24 09:19:38;;;;;;;14.05;12.57;;;;;;;10.13;92.60;100830.72;5020000;28;20030;-75
2021/12/24 09:22:07;;;;;;;12.30;11.00;;;;;;;10.16;92.07;100832.81;5019454;28;20034;-75
2021/12/24 09:24:37;;;;;;;13.15;11.77;;;;;;;10.22;91.46;100834.22;5023793;28;20384;-75
2021/12/24 09:27:05;;;;;;;13.38;10.40;;;;;;;10.17;90.94;100823.31;5024036;28;20044;-75
2021/12/24 09:29:33;;;;;;;11.82;10.57;;;;;;;10.21;90.14;100819.50;5024632;28;20025;-75
2021/12/24 09:32:02;;;;;;;13.57;11.45;;;;;;;10.24;90.03;100829.16;5023437;28;20033;-75
2021/12/24 09:34:32;;;;;;;13.90;11.80;;;;;;;10.30;90.03;100832.53;5020244;28;20029;-76
2021/12/24 09:37:04;;;;;;;13.10;11.70;;;;;;;10.32;90.05;100833.78;5021891;28;20040;-75
2021/12/24 09:39:36;;;;;;;15.75;14.07;;;;;;;10.34;89.37;100825.94;5023705;28;20021;-76
2021/12/24 09:42:05;;;;;;;35.03;28.77;;;;;;;10.41;89.69;100817.00;5023948;28;20034;-75
2021/12/24 09:44:31;;;;;;;24.40;21.77;;;;;;;10.45;89.35;100813.19;5023178;28;20061;-75
2021/12/24 09:46:57;;;;;;;29.13;25.55;;;;;;;10.44;89.18;100811.56;5023711;28;20073;-75
2021/12/24 09:49:25;;;;;;;27.80;24.83;;;;;;;10.36;88.77;100809.69;5022507;28;20072;-76
2021/12/24 09:52:02;;;;;;;34.53;27.70;;;;;;;10.40;89.07;100796.72;5020706;28;20025;-75
2021/12/24 09:54:35;;;;;;;30.23;26.05;;;;;;;10.46;88.66;100800.91;5020076;28;20033;-75
2021/12/24 09:57:04;;;;;;;35.58;29.85;;;;;;;10.47;88.60;100796.94;5020344;28;20476;-75
2021/12/24 09:59:36;;;;;;;24.35;21.75;;;;;;;10.40;88.73;100793.94;5021849;28;20064;-75
2021/12/24 10:02:07;;;;;;;34.08;25.92;;;;;;;10.45;89.73;100792.91;5039859;28;20033;-75
2021/12/24 10:04:37;;;;;;;28.40;24.90;;;;;;;10.41;89.83;100773.31;5022368;28;20132;-76
2021/12/24 10:07:05;;;;;;;22.67;19.23;;;;;;;10.27;89.42;100778.41;5022388;28;20032;-75
2021/12/24 10:09:38;;;;;;;19.55;16.02;;;;;;;10.23;90.25;100783.00;5040229;28;20518;-75
2021/12/24 10:12:17;;;;;;;21.38;16.92;;;;;;;10.37;90.55;100780.72;5022984;28;20487;-75
2021/12/24 10:14:59;;;;;;;19.83;16.58;;;;;;;10.47;89.41;100783.03;5022250;28;20030;-75
2021/12/24 10:17:34;;;;;;;18.80;15.05;;;;;;;10.48;87.97;100779.09;5022935;28;20044;-74
2021/12/24 10:20:09;;;;;;;20.40;15.98;;;;;;;10.53;87.81;100780.03;5005660;28;20124;-75
2021/12/24 10:22:42;;;;;;;18.83;14.77;;;;;;;10.57;87.74;100776.22;5037999;28;20037;-75
2021/12/24 10:25:12;;;;;;;21.23;15.70;;;;;;;10.70;87.63;100775.03;5042001;28;20033;-75
2021/12/24 10:27:43;;;;;;;15.43;11.68;;;;;;;10.77;85.36;100765.31;5023929;28;20464;-75
2021/12/24 10:30:17;;;;;;;14.20;12.50;;;;;;;10.79;83.91;100766.56;5017932;28;20472;-73
2021/12/24 10:32:46;;;;;;;17.92;13.10;;;;;;;10.74;85.12;100769.59;5019816;28;20038;-74
2021/12/24 10:35:22;;;;;;;16.95;14.40;;;;;;;10.77;85.98;100766.13;5021064;28;20030;-75
2021/12/24 10:38:17;;;;;;;18.02;15.50;;;;;;;10.71;85.32;100767.50;5019116;28;20103;-73
2021/12/24 10:41:04;;;;;;;18.17;16.08;;;;;;;10.73;86.36;100756.84;5018426;28;20107;-73
2021/12/24 10:43:33;;;;;;;21.13;15.38;;;;;;;10.78;86.29;100748.25;5017552;28;20464;-74
2021/12/24 10:46:25;;;;;;;16.70;14.70;;;;;;;10.84;86.47;100751.59;5018222;28;20031;-75
2021/12/24 10:49:07;;;;;;;17.67;15.55;;;;;;;10.84;86.31;100741.28;5018000;28;20033;-74
2021/12/24 10:52:13;;;;;;;22.10;18.20;;;;;;;11.04;85.84;100747.03;5018009;28;20025;-74
2021/12/24 10:55:02;;;;;;;17.58;15.05;;;;;;;11.12;84.90;100741.31;5035460;28;20025;-73
2021/12/24 10:57:33;;;;;;;26.88;16.42;;;;;;;11.10;84.87;100732.50;5016374;28;20049;-74
2021/12/24 11:00:05;;;;;;;18.63;16.00;;;;;;;11.16;84.87;100738.63;5035710;28;20077;-74
2021/12/24 11:02:47;;;;;;;21.98;17.63;;;;;;;11.24;84.19;100734.91;5035173;28;20025;-74
2021/12/24 11:05:32;;;;;;;17.90;16.05;;;;;;;11.23;84.45;100727.69;5018061;28;20361;-73
2021/12/24 11:08:07;;;;;;;21.55;15.90;;;;;;;11.25;84.72;100740.13;5017393;28;20030;-73
2021/12/24 11:10:41;;;;;;;20.98;17.90;;;;;;;11.22;84.62;100717.72;5035419;28;20026;-75
2021/12/24 11:13:16;;;;;;;17.55;15.18;;;;;;;11.20;84.16;100729.22;5035417;28;20029;-73
2021/12/24 11:15:52;;;;;;;14.85;13.27;;;;;;;11.16;84.58;100699.63;5036432;28;20037;-74
2021/12/24 11:18:31;;;;;;;18.05;13.95;;;;;;;11.22;84.57;100695.44;5019642;28;20037;-74
2021/12/24 11:21:07;;;;;;;20.88;16.50;;;;;;;11.52;84.10;100724.56;5038304;28;20075;-73
2021/12/24 11:23:43;;;;;;;22.42;19.02;;;;;;;12.10;82.67;100717.72;5034851;28;20022;-73
2021/12/24 11:26:16;;;;;;;28.10;19.02;;;;;;;12.36;78.40;100720.78;5035030;28;20364;-74
2021/12/24 11:28:48;;;;;;;21.33;17.55;;;;;;;12.30;78.40;100717.44;5017594;28;20025;-73
2021/12/24 11:31:21;;;;;;;18.10;14.93;;;;;;;12.28;78.21;100721.75;5017466;28;20030;-73
2021/12/24 11:33:55;;;;;;;19.02;15.23;;;;;;;12.30;78.53;100713.81;5017452;28;20025;-73
2021/12/24 11:36:25;;;;;;;20.05;15.73;;;;;;;11.98;78.63;100705.47;5016790;28;20029;-73
2021/12/24 11:38:59;;;;;;;22.02;19.08;;;;;;;11.72;79.94;100705.19;5016912;28;20472;-74
2021/12/24 11:41:34;;;;;;;17.40;15.07;;;;;;;11.50;80.18;100712.97;5034011;28;20469;-73
2021/12/24 11:44:06;;;;;;;19.48;16.75;;;;;;;11.49;80.58;100707.72;5016487;28;20029;-73
2021/12/24 11:46:34;;;;;;;23.33;18.77;;;;;;;11.39;81.67;100697.09;5033206;28;20032;-73
2021/12/24 11:49:07;;;;;;;26.60;18.08;;;;;;;11.44;82.40;100700.44;5034959;28;20037;-74
2021/12/24 11:51:44;;;;;;;22.48;20.13;;;;;;;11.60;82.85;100699.66;5016565;28;20025;-73
2021/12/24 11:54:10;;;;;;;30.63;20.77;;;;;;;11.68;82.68;100695.91;5017349;28;20383;-73
2021/12/24 11:56:49;;;;;;;31.08;26.05;;;;;;;11.61;81.62;100679.81;5034280;28;20061;-73
2021/12/24 11:59:37;;;;;;;28.60;23.70;;;;;;;11.62;81.88;100680.63;5034460;28;20022;-73
2021/12/24 12:02:07;;;;;;;34.33;26.95;;;;;;;11.90;81.78;100683.34;5016834;28;20056;-73
2021/12/24 12:04:33;;;;;;;28.45;22.40;;;;;;;11.94;80.40;100682.28;5016248;28;20112;-73
2021/12/24 12:07:16;;;;;;;35.03;26.35;;;;;;;12.13;80.10;100675.97;5016524;28;20049;-73
2021/12/24 12:09:48;;;;;;;29.13;23.52;;;;;;;12.05;79.89;100679.75;5016765;28;20029;-73
2021/12/24 12:12:31;;;;;;;29.90;22.13;;;;;;;12.01;79.95;100671.28;5016793;28;20061;-73
2021/12/24 12:15:24;;;;;;;27.38;23.00;;;;;;;12.05;78.98;100674.19;5016676;28;20528;-73
2021/12/24 12:17:58;;;;;;;24.55;18.27;;;;;;;11.97;78.04;100664.81;5016779;28;20038;-74
2021/12/24 12:20:46;;;;;;;;;;;;;;;12.07;79.21;100678.22;5034234;28;20380;-73
2021/12/24 12:23:45;;;;;;;23.35;18.52;;;;;;;12.18;79.06;100669.28;5016719;28;20385;-73
2021/12/24 12:26:32;;;;;;;20.52;15.48;;;;;;;12.34;77.18;100678.44;5016039;28;20033;-75
2021/12/24 12:29:30;;;;;;;17.70;13.50;;;;;;;12.29;75.78;100662.00;5016145;28;20079;-73
2021/12/24 12:32:14;;;;;;;17.92;14.20;;;;;;;12.32;75.62;100661.28;4983485;28;20052;-73
2021/12/24 12:34:43;;;;;;;19.90;15.95;;;;;;;12.21;76.11;100658.22;5015649;28;20029;-73
2021/12/24 12:37:27;;;;;;;17.63;14.95;;;;;;;12.06;75.70;100661.84;5016097;28;20030;-73
2021/12/24 12:40:17;;;;;;;19.83;17.05;;;;;;;11.98;76.38;100660.84;5016782;28;20357;-73
2021/12/24 12:42:56;;;;;;;23.75;17.35;;;;;;;12.03;76.23;100663.38;5034639;28;20529;-73
2021/12/24 12:45:37;;;;;;;21.77;16.95;;;;;;;11.83;76.23;100631.03;5033818;28;20026;-73
2021/12/24 12:48:26;;;;;;;23.20;19.85;;;;;;;12.06;76.54;100657.06;5016585;28;20455;-76
2021/12/24 12:51:02;;;;;;;24.67;21.35;;;;;;;12.07;77.73;100647.53;5015637;28;20103;-73
2021/12/24 12:53:37;;;;;;;27.30;22.95;;;;;;;12.08;77.93;100642.75;5016577;28;20087;-73
2021/12/24 12:56:17;;;;;;;20.73;17.33;;;;;;;11.94;76.72;100620.94;5015747;28;20040;-73
2021/12/24 12:58:58;;;;;;;31.40;23.67;;;;;;;12.16;76.99;100646.53;5020300;28;20128;-73
2021/12/24 13:01:27;;;;;;;19.25;15.20;;;;;;;12.12;76.31;100646.44;5037698;28;20025;-74
2021/12/24 13:03:58;;;;;;;22.00;17.80;;;;;;;12.20;76.21;100644.66;5037944;28;20456;-74
2021/12/24 13:06:23;;;;;;;30.38;22.50;;;;;;;11.99;75.90;100617.88;5019674;28;20111;-74
2021/12/24 13:08:50;;;;;;;24.35;18.95;;;;;;;12.20;75.56;100645.47;5020320;28;20029;-73
2021/12/24 13:11:20;;;;;;;20.55;16.02;;;;;;;12.16;75.89;100652.13;5019381;28;20030;-73
2021/12/24 13:14:01;;;;;;;26.52;23.58;;;;;;;12.07;76.01;100653.09;5037150;28;20498;-73
2021/12/24 13:17:04;;;;;;;26.55;20.45;;;;;;;11.96;76.21;100652.03;5019999;28;20127;-74
2021/12/24 13:22:36;;;;;;;23.33;20.83;;;;;;;11.88;76.83;100657.78;5041165;28;20272;-75
2021/12/24 13:25:25;;;;;;;24.02;18.38;;;;;;;11.83;76.79;100649.72;5019814;28;20036;-75